sensor_id;sensor_type;location;lat;lon;timestamp;pressure;altitude;pressure_sealevel;temperature;humidity
55277;BME280;41136;51.478;-2.610;2024-01-11T00:01:26;102353.57;;;1.24;100.00
55277;BME280;41136;51.478;-2.610;2024-01-11T00:03:51;102360.88;;;2.02;100.00
55277;BME280;41136;51.478;-2.610;2024-01-11T00:06:17;102360.64;;;1.51;100.00
55277;BME280;41136;51.478;-2.610;2024-01-11T00:08:43;102369.09;;;2.29;100.00
55277;BME280;41136;51.478;-2.610;2024-01-11T00:11:08;102375.15;;;0.83;100.00
55277;BME280;41136;51.478;-2.610;2024-01-11T00:13:33;102374.78;;;0.47;100.00
55277;BME280;41136;51.478;-2.610;2024-01-11T00:15:59;102369.13;;;0.07;100.00
55277;BME280;41136;51.478;-2.610;2024-01-11T00:18:24;102376.98;;;0.18;100.00
55277;BME280;41136;51.478;-2.610;2024-01-11T00:20:50;102378.40;;;0.30;100.00
55277;BME280;41136;51.478;-2.610;2024-01-11T00:23:15;102382.21;;;0.42;100.00
55277;BME280;41136;51.478;-2.610;2024-01-11T00:25:41;102387.85;;;1.06;100.00
55277;BME280;41136;51.478;-2.610;2024-01-11T00:28:06;102382.16;;;0.83;100.00
55277;BME280;41136;51.478;-2.610;2024-01-11T00:30:32;102390.74;;;1.38;100.00
55277;BME280;41136;51.478;-2.610;2024-01-11T00:32:58;102394.49;;;1.66;100.00
55277;BME280;41136;51.478;-2.610;2024-01-11T00:35:23;102396.49;;;1.39;100.00
55277;BME280;41136;51.478;-2.610;2024-01-11T00:37:48;102405.48;;;0.61;100.00
55277;BME280;41136;51.478;-2.610;2024-01-11T00:40:14;102409.48;;;0.51;100.00
55277;BME280;41136;51.478;-2.610;2024-01-11T00:42:39;102408.78;;;1.26;100.00
55277;BME280;41136;51.478;-2.610;2024-01-11T00:45:06;102404.75;;;1.56;100.00
55277;BME280;41136;51.478;-2.610;2024-01-11T00:47:30;102399.76;;;1.28;100.00
55277;BME280;41136;51.478;-2.610;2024-01-11T00:49:56;102402.52;;;1.64;100.00
55277;BME280;41136;51.478;-2.610;2024-01-11T00:52:21;102400.22;;;0.43;100.00
55277;BME280;41136;51.478;-2.610;2024-01-11T00:54:47;102405.85;;;1.12;100.00
55277;BME280;41136;51.478;-2.610;2024-01-11T00:57:12;102404.44;;;1.32;100.00
55277;BME280;41136;51.478;-2.610;2024-01-11T00:59:40;102408.40;;;1.49;100.00
55277;BME280;41136;51.478;-2.610;2024-01-11T01:02:03;102412.55;;;1.31;100.00
55277;BME280;41136;51.478;-2.610;2024-01-11T01:04:29;102410.74;;;1.10;100.00
55277;BME280;41136;51.478;-2.610;2024-01-11T01:06:55;102410.62;;;1.53;100.00
55277;BME280;41136;51.478;-2.610;2024-01-11T01:09:20;102414.30;;;1.22;100.00
55277;BME280;41136;51.478;-2.610;2024-01-11T01:11:46;102411.76;;;1.30;100.00
55277;BME280;41136;51.478;-2.610;2024-01-11T01:14:11;102411.69;;;0.94;100.00
55277;BME280;41136;51.478;-2.610;2024-01-11T01:25:57;102417.45;;;1.43;100.00
55277;BME280;41136;51.478;-2.610;2024-01-11T01:28:22;102418.53;;;1.25;100.00
55277;BME280;41136;51.478;-2.610;2024-01-11T01:30:48;102418.52;;;1.24;100.00
55277;BME280;41136;51.478;-2.610;2024-01-11T01:33:13;102421.28;;;0.43;100.00
55277;BME280;41136;51.478;-2.610;2024-01-11T01:35:38;102426.25;;;0.86;100.00
55277;BME280;41136;51.478;-2.610;2024-01-11T01:38:04;102424.96;;;1.22;100.00
55277;BME280;41136;51.478;-2.610;2024-01-11T01:40:30;102421.02;;;0.59;100.00
55277;BME280;41136;51.478;-2.610;2024-01-11T01:42:58;102427.73;;;0.31;100.00
55277;BME280;41136;51.478;-2.610;2024-01-11T01:45:20;102434.26;;;1.28;100.00
55277;BME280;41136;51.478;-2.610;2024-01-11T01:47:46;102433.00;;;1.04;100.00
55277;BME280;41136;51.478;-2.610;2024-01-11T01:50:12;102434.03;;;0.45;100.00
55277;BME280;41136;51.478;-2.610;2024-01-11T01:52:39;102432.96;;;0.74;100.00
55277;BME280;41136;51.478;-2.610;2024-01-11T01:55:04;102433.89;;;0.79;100.00
55277;BME280;41136;51.478;-2.610;2024-01-11T01:57:28;102439.63;;;1.08;100.00
55277;BME280;41136;51.478;-2.610;2024-01-11T01:59:54;102445.23;;;1.78;100.00
55277;BME280;41136;51.478;-2.610;2024-01-11T02:02:19;102443.03;;;0.39;100.00
55277;BME280;41136;51.478;-2.610;2024-01-11T02:04:44;102446.21;;;0.01;100.00
55277;BME280;41136;51.478;-2.610;2024-01-11T02:07:10;102453.00;;;0.55;100.00
55277;BME280;41136;51.478;-2.610;2024-01-11T02:09:36;102457.63;;;0.58;100.00
55277;BME280;41136;51.478;-2.610;2024-01-11T02:12:02;102461.78;;;0.55;100.00
55277;BME280;41136;51.478;-2.610;2024-01-11T02:14:26;102464.59;;;0.67;100.00
55277;BME280;41136;51.478;-2.610;2024-01-11T02:16:52;102470.63;;;0.12;100.00
55277;BME280;41136;51.478;-2.610;2024-01-11T02:19:19;102472.34;;;0.04;100.00
55277;BME280;41136;51.478;-2.610;2024-01-11T02:21:43;102474.26;;;0.51;100.00
55277;BME280;41136;51.478;-2.610;2024-01-11T02:24:09;102473.14;;;0.92;100.00
55277;BME280;41136;51.478;-2.610;2024-01-11T02:26:34;102475.49;;;0.20;100.00
55277;BME280;41136;51.478;-2.610;2024-01-11T02:29:00;102480.89;;;0.34;100.00
55277;BME280;41136;51.478;-2.610;2024-01-11T02:34:59;102485.48;;;-0.38;100.00
55277;BME280;41136;51.478;-2.610;2024-01-11T02:37:24;102488.01;;;0.76;100.00
55277;BME280;41136;51.478;-2.610;2024-01-11T02:39:50;102492.24;;;1.10;100.00
55277;BME280;41136;51.478;-2.610;2024-01-11T02:42:15;102492.65;;;1.40;100.00
55277;BME280;41136;51.478;-2.610;2024-01-11T02:44:41;102498.95;;;1.49;100.00
55277;BME280;41136;51.478;-2.610;2024-01-11T02:47:06;102506.53;;;0.97;100.00
55277;BME280;41136;51.478;-2.610;2024-01-11T02:49:31;102513.46;;;2.01;100.00
55277;BME280;41136;51.478;-2.610;2024-01-11T02:51:57;102520.42;;;1.56;100.00
55277;BME280;41136;51.478;-2.610;2024-01-11T02:54:22;102526.60;;;2.59;100.00
55277;BME280;41136;51.478;-2.610;2024-01-11T02:56:48;102527.09;;;2.37;100.00
55277;BME280;41136;51.478;-2.610;2024-01-11T02:59:18;102524.71;;;0.86;100.00
55277;BME280;41136;51.478;-2.610;2024-01-11T03:01:39;102531.06;;;1.27;100.00
55277;BME280;41136;51.478;-2.610;2024-01-11T03:04:05;102534.22;;;0.97;100.00
55277;BME280;41136;51.478;-2.610;2024-01-11T03:06:30;102537.05;;;1.49;100.00
55277;BME280;41136;51.478;-2.610;2024-01-11T03:08:55;102538.50;;;1.90;100.00
55277;BME280;41136;51.478;-2.610;2024-01-11T03:11:21;102542.95;;;1.58;100.00
55277;BME280;41136;51.478;-2.610;2024-01-11T03:13:46;102539.92;;;1.75;100.00
55277;BME280;41136;51.478;-2.610;2024-01-11T03:16:12;102541.91;;;1.61;100.00
55277;BME280;41136;51.478;-2.610;2024-01-11T03:18:37;102546.47;;;1.14;100.00
55277;BME280;41136;51.478;-2.610;2024-01-11T03:21:03;102546.22;;;1.83;100.00
55277;BME280;41136;51.478;-2.610;2024-01-11T03:23:28;102545.47;;;1.59;100.00
55277;BME280;41136;51.478;-2.610;2024-01-11T03:25:53;102536.60;;;1.77;100.00
55277;BME280;41136;51.478;-2.610;2024-01-11T03:28:19;102536.00;;;1.06;100.00
55277;BME280;41136;51.478;-2.610;2024-01-11T03:30:44;102535.92;;;1.03;100.00
55277;BME280;41136;51.478;-2.610;2024-01-11T03:33:10;102538.11;;;0.70;100.00
55277;BME280;41136;51.478;-2.610;2024-01-11T03:35:35;102539.31;;;0.74;100.00
55277;BME280;41136;51.478;-2.610;2024-01-11T03:38:01;102544.14;;;0.26;100.00
55277;BME280;41136;51.478;-2.610;2024-01-11T03:40:26;102550.72;;;1.00;100.00
55277;BME280;41136;51.478;-2.610;2024-01-11T03:42:52;102549.42;;;1.62;100.00
55277;BME280;41136;51.478;-2.610;2024-01-11T03:45:18;102553.26;;;0.76;100.00
55277;BME280;41136;51.478;-2.610;2024-01-11T03:47:43;102555.33;;;0.56;100.00
55277;BME280;41136;51.478;-2.610;2024-01-11T03:50:09;102562.00;;;0.61;100.00
55277;BME280;41136;51.478;-2.610;2024-01-11T03:52:34;102561.86;;;-0.70;100.00
55277;BME280;41136;51.478;-2.610;2024-01-11T03:55:00;102562.69;;;0.22;100.00
55277;BME280;41136;51.478;-2.610;2024-01-11T03:57:25;102561.25;;;0.83;100.00
55277;BME280;41136;51.478;-2.610;2024-01-11T03:59:50;102573.31;;;1.54;100.00
55277;BME280;41136;51.478;-2.610;2024-01-11T04:02:16;102578.99;;;1.50;100.00
55277;BME280;41136;51.478;-2.610;2024-01-11T04:04:41;102577.67;;;2.05;100.00
55277;BME280;41136;51.478;-2.610;2024-01-11T04:07:07;102578.54;;;1.76;100.00
55277;BME280;41136;51.478;-2.610;2024-01-11T04:09:32;102581.81;;;1.16;100.00
55277;BME280;41136;51.478;-2.610;2024-01-11T04:16:04;102582.47;;;0.97;100.00
55277;BME280;41136;51.478;-2.610;2024-01-11T04:18:26;102579.15;;;1.07;100.00
55277;BME280;41136;51.478;-2.610;2024-01-11T04:20:51;102583.28;;;2.61;100.00
55277;BME280;41136;51.478;-2.610;2024-01-11T04:23:17;102589.11;;;2.68;100.00
55277;BME280;41136;51.478;-2.610;2024-01-11T04:25:42;102598.14;;;2.82;100.00
55277;BME280;41136;51.478;-2.610;2024-01-11T04:28:08;102599.75;;;3.27;100.00
55277;BME280;41136;51.478;-2.610;2024-01-11T04:30:33;102600.77;;;3.41;100.00
55277;BME280;41136;51.478;-2.610;2024-01-11T04:32:59;102607.59;;;3.69;100.00
55277;BME280;41136;51.478;-2.610;2024-01-11T04:35:24;102611.90;;;2.19;100.00
55277;BME280;41136;51.478;-2.610;2024-01-11T04:37:49;102610.39;;;3.11;100.00
55277;BME280;41136;51.478;-2.610;2024-01-11T04:40:15;102606.98;;;1.95;100.00
55277;BME280;41136;51.478;-2.610;2024-01-11T04:42:40;102609.21;;;2.47;100.00
55277;BME280;41136;51.478;-2.610;2024-01-11T04:45:06;102605.65;;;1.88;100.00
55277;BME280;41136;51.478;-2.610;2024-01-11T04:47:31;102603.97;;;2.09;100.00
55277;BME280;41136;51.478;-2.610;2024-01-11T04:49:57;102605.26;;;1.71;100.00
55277;BME280;41136;51.478;-2.610;2024-01-11T04:52:22;102605.15;;;2.16;100.00
55277;BME280;41136;51.478;-2.610;2024-01-11T04:54:48;102600.22;;;1.36;100.00
55277;BME280;41136;51.478;-2.610;2024-01-11T04:57:13;102598.16;;;2.05;100.00
55277;BME280;41136;51.478;-2.610;2024-01-11T04:59:39;102603.13;;;1.83;100.00
55277;BME280;41136;51.478;-2.610;2024-01-11T05:02:04;102601.19;;;1.35;100.00
55277;BME280;41136;51.478;-2.610;2024-01-11T05:04:30;102606.42;;;1.51;100.00
55277;BME280;41136;51.478;-2.610;2024-01-11T05:06:55;102601.79;;;1.65;100.00
55277;BME280;41136;51.478;-2.610;2024-01-11T05:09:21;102607.64;;;1.95;100.00
55277;BME280;41136;51.478;-2.610;2024-01-11T05:11:46;102611.76;;;1.75;100.00
55277;BME280;41136;51.478;-2.610;2024-01-11T05:14:12;102617.57;;;2.00;100.00
55277;BME280;41136;51.478;-2.610;2024-01-11T05:16:37;102623.20;;;1.69;100.00
55277;BME280;41136;51.478;-2.610;2024-01-11T05:19:03;102622.02;;;0.78;100.00
55277;BME280;41136;51.478;-2.610;2024-01-11T05:21:29;102630.23;;;0.52;100.00
55277;BME280;41136;51.478;-2.610;2024-01-11T05:23:54;102631.53;;;1.34;100.00
55277;BME280;41136;51.478;-2.610;2024-01-11T05:26:20;102633.70;;;0.99;100.00
55277;BME280;41136;51.478;-2.610;2024-01-11T05:28:45;102640.02;;;1.37;100.00
55277;BME280;41136;51.478;-2.610;2024-01-11T05:31:11;102639.45;;;2.40;100.00
55277;BME280;41136;51.478;-2.610;2024-01-11T05:33:35;102641.79;;;3.02;100.00
55277;BME280;41136;51.478;-2.610;2024-01-11T05:36:01;102639.26;;;2.03;100.00
55277;BME280;41136;51.478;-2.610;2024-01-11T05:38:26;102639.98;;;2.40;100.00
55277;BME280;41136;51.478;-2.610;2024-01-11T05:40:52;102640.87;;;2.57;100.00
55277;BME280;41136;51.478;-2.610;2024-01-11T05:43:17;102644.93;;;1.91;100.00
55277;BME280;41136;51.478;-2.610;2024-01-11T05:45:43;102640.26;;;2.29;100.00
55277;BME280;41136;51.478;-2.610;2024-01-11T05:48:10;102639.41;;;2.42;100.00
55277;BME280;41136;51.478;-2.610;2024-01-11T05:50:34;102640.04;;;2.47;100.00
55277;BME280;41136;51.478;-2.610;2024-01-11T05:52:59;102640.99;;;2.11;100.00
55277;BME280;41136;51.478;-2.610;2024-01-11T05:55:25;102639.78;;;1.82;100.00
55277;BME280;41136;51.478;-2.610;2024-01-11T05:57:50;102643.77;;;2.84;100.00
55277;BME280;41136;51.478;-2.610;2024-01-11T06:00:16;102646.78;;;2.72;100.00
55277;BME280;41136;51.478;-2.610;2024-01-11T06:02:41;102646.85;;;2.51;100.00
55277;BME280;41136;51.478;-2.610;2024-01-11T06:05:08;102650.08;;;2.11;100.00
55277;BME280;41136;51.478;-2.610;2024-01-11T06:07:32;102652.35;;;2.25;100.00
55277;BME280;41136;51.478;-2.610;2024-01-11T06:09:57;102651.89;;;2.53;100.00
55277;BME280;41136;51.478;-2.610;2024-01-11T06:12:23;102658.89;;;2.76;100.00
55277;BME280;41136;51.478;-2.610;2024-01-11T06:21:36;102667.31;;;2.99;100.00
55277;BME280;41136;51.478;-2.610;2024-01-11T06:24:01;102667.47;;;2.39;100.00
55277;BME280;41136;51.478;-2.610;2024-01-11T06:26:27;102672.93;;;2.98;100.00
55277;BME280;41136;51.478;-2.610;2024-01-11T06:28:52;102675.57;;;2.63;100.00
55277;BME280;41136;51.478;-2.610;2024-01-11T06:31:18;102682.14;;;2.54;100.00
55277;BME280;41136;51.478;-2.610;2024-01-11T06:33:43;102678.28;;;2.57;100.00
55277;BME280;41136;51.478;-2.610;2024-01-11T06:36:09;102681.00;;;3.92;100.00
55277;BME280;41136;51.478;-2.610;2024-01-11T06:38:34;102685.08;;;3.82;100.00
55277;BME280;41136;51.478;-2.610;2024-01-11T06:41:00;102685.29;;;4.20;100.00
55277;BME280;41136;51.478;-2.610;2024-01-11T06:43:25;102687.36;;;3.91;100.00
55277;BME280;41136;51.478;-2.610;2024-01-11T06:45:50;102691.49;;;2.93;100.00
55277;BME280;41136;51.478;-2.610;2024-01-11T06:48:16;102696.04;;;3.54;100.00
55277;BME280;41136;51.478;-2.610;2024-01-11T06:50:41;102706.07;;;3.78;100.00
55277;BME280;41136;51.478;-2.610;2024-01-11T06:53:07;102710.42;;;3.82;100.00
55277;BME280;41136;51.478;-2.610;2024-01-11T06:55:32;102716.64;;;3.14;100.00
55277;BME280;41136;51.478;-2.610;2024-01-11T06:57:57;102721.32;;;3.31;100.00
55277;BME280;41136;51.478;-2.610;2024-01-11T07:00:23;102725.87;;;4.05;100.00
55277;BME280;41136;51.478;-2.610;2024-01-11T07:02:48;102728.34;;;4.31;100.00
55277;BME280;41136;51.478;-2.610;2024-01-11T07:05:14;102727.80;;;4.47;99.36
55277;BME280;41136;51.478;-2.610;2024-01-11T07:07:39;102734.60;;;3.56;100.00
55277;BME280;41136;51.478;-2.610;2024-01-11T07:10:06;102734.25;;;3.99;99.94
55277;BME280;41136;51.478;-2.610;2024-01-11T07:12:30;102737.72;;;3.39;100.00
55277;BME280;41136;51.478;-2.610;2024-01-11T07:14:56;102738.79;;;2.92;100.00
55277;BME280;41136;51.478;-2.610;2024-01-11T07:17:21;102741.31;;;3.23;100.00
55277;BME280;41136;51.478;-2.610;2024-01-11T07:19:47;102745.04;;;3.84;100.00
55277;BME280;41136;51.478;-2.610;2024-01-11T07:22:12;102749.56;;;3.79;100.00
55277;BME280;41136;51.478;-2.610;2024-01-11T07:24:38;102753.88;;;3.77;100.00
55277;BME280;41136;51.478;-2.610;2024-01-11T07:27:04;102758.30;;;3.80;100.00
55277;BME280;41136;51.478;-2.610;2024-01-11T07:29:28;102756.16;;;4.77;99.83
55277;BME280;41136;51.478;-2.610;2024-01-11T07:31:54;102759.28;;;4.56;98.50
55277;BME280;41136;51.478;-2.610;2024-01-11T07:34:19;102756.04;;;4.94;98.12
55277;BME280;41136;51.478;-2.610;2024-01-11T07:36:45;102762.07;;;4.99;97.98
55277;BME280;41136;51.478;-2.610;2024-01-11T07:39:10;102765.26;;;5.40;96.83
55277;BME280;41136;51.478;-2.610;2024-01-11T07:41:36;102770.32;;;4.78;96.25
55277;BME280;41136;51.478;-2.610;2024-01-11T07:44:01;102774.78;;;5.03;95.32
55277;BME280;41136;51.478;-2.610;2024-01-11T07:46:27;102784.63;;;4.92;94.32
55277;BME280;41136;51.478;-2.610;2024-01-11T07:48:52;102790.57;;;4.62;94.66
55277;BME280;41136;51.478;-2.610;2024-01-11T07:51:18;102795.54;;;4.81;95.15
55277;BME280;41136;51.478;-2.610;2024-01-11T07:53:43;102799.76;;;5.00;94.29
55277;BME280;41136;51.478;-2.610;2024-01-11T07:56:09;102801.70;;;4.35;97.52
55277;BME280;41136;51.478;-2.610;2024-01-11T07:58:34;102800.43;;;4.42;96.47
55277;BME280;41136;51.478;-2.610;2024-01-11T08:01:00;102802.01;;;4.24;97.36
55277;BME280;41136;51.478;-2.610;2024-01-11T08:03:25;102803.41;;;4.60;96.20
55277;BME280;41136;51.478;-2.610;2024-01-11T08:05:50;102805.36;;;4.18;95.62
55277;BME280;41136;51.478;-2.610;2024-01-11T08:08:17;102811.16;;;3.86;97.04
55277;BME280;41136;51.478;-2.610;2024-01-11T08:10:42;102809.37;;;3.62;98.45
55277;BME280;41136;51.478;-2.610;2024-01-11T08:13:07;102810.56;;;4.42;98.73
55277;BME280;41136;51.478;-2.610;2024-01-11T08:15:33;102810.16;;;4.28;97.61
55277;BME280;41136;51.478;-2.610;2024-01-11T08:17:58;102810.86;;;3.93;98.84
55277;BME280;41136;51.478;-2.610;2024-01-11T08:20:24;102811.71;;;3.74;100.00
55277;BME280;41136;51.478;-2.610;2024-01-11T08:22:49;102815.67;;;3.85;100.00
55277;BME280;41136;51.478;-2.610;2024-01-11T08:25:15;102819.60;;;4.25;99.48
55277;BME280;41136;51.478;-2.610;2024-01-11T08:27:40;102819.67;;;4.86;97.54
55277;BME280;41136;51.478;-2.610;2024-01-11T08:30:06;102823.09;;;3.97;99.24
55277;BME280;41136;51.478;-2.610;2024-01-11T08:32:31;102823.95;;;3.89;99.38
55277;BME280;41136;51.478;-2.610;2024-01-11T08:34:57;102820.84;;;3.63;100.00
55277;BME280;41136;51.478;-2.610;2024-01-11T08:37:22;102825.03;;;3.80;100.00
55277;BME280;41136;51.478;-2.610;2024-01-11T08:39:47;102826.13;;;4.08;100.00
55277;BME280;41136;51.478;-2.610;2024-01-11T08:42:13;102824.18;;;3.46;100.00
55277;BME280;41136;51.478;-2.610;2024-01-11T08:44:41;102823.84;;;3.25;100.00
55277;BME280;41136;51.478;-2.610;2024-01-11T08:47:04;102822.50;;;3.52;100.00
55277;BME280;41136;51.478;-2.610;2024-01-11T08:49:29;102826.63;;;3.47;100.00
55277;BME280;41136;51.478;-2.610;2024-01-11T08:51:55;102826.35;;;3.69;100.00
55277;BME280;41136;51.478;-2.610;2024-01-11T08:54:20;102832.25;;;3.40;100.00
55277;BME280;41136;51.478;-2.610;2024-01-11T08:56:46;102838.04;;;3.38;100.00
55277;BME280;41136;51.478;-2.610;2024-01-11T08:59:11;102842.05;;;3.61;100.00
55277;BME280;41136;51.478;-2.610;2024-01-11T09:01:36;102842.43;;;3.50;100.00
55277;BME280;41136;51.478;-2.610;2024-01-11T09:04:02;102847.47;;;2.75;100.00
55277;BME280;41136;51.478;-2.610;2024-01-11T09:06:27;102851.75;;;4.07;100.00
55277;BME280;41136;51.478;-2.610;2024-01-11T09:08:53;102858.62;;;3.45;100.00
55277;BME280;41136;51.478;-2.610;2024-01-11T09:11:18;102859.09;;;3.07;100.00
55277;BME280;41136;51.478;-2.610;2024-01-11T09:13:44;102861.38;;;3.79;100.00
55277;BME280;41136;51.478;-2.610;2024-01-11T09:16:09;102865.55;;;3.86;100.00
55277;BME280;41136;51.478;-2.610;2024-01-11T09:18:35;102869.48;;;3.25;100.00
55277;BME280;41136;51.478;-2.610;2024-01-11T09:24:58;102877.91;;;3.30;96.21
55277;BME280;41136;51.478;-2.610;2024-01-11T09:27:23;102877.64;;;2.90;98.25
55277;BME280;41136;51.478;-2.610;2024-01-11T09:29:49;102881.89;;;3.16;96.67
55277;BME280;41136;51.478;-2.610;2024-01-11T09:32:14;102886.51;;;3.37;98.41
55277;BME280;41136;51.478;-2.610;2024-01-11T09:34:39;102886.04;;;3.45;98.64
55277;BME280;41136;51.478;-2.610;2024-01-11T09:37:05;102887.68;;;3.80;98.55
55277;BME280;41136;51.478;-2.610;2024-01-11T09:39:30;102890.90;;;3.86;98.93
55277;BME280;41136;51.478;-2.610;2024-01-11T09:41:59;102898.24;;;3.53;100.00
55277;BME280;41136;51.478;-2.610;2024-01-11T09:44:21;102903.47;;;2.95;100.00
55277;BME280;41136;51.478;-2.610;2024-01-11T09:46:47;102905.92;;;3.07;100.00
55277;BME280;41136;51.478;-2.610;2024-01-11T09:49:13;102904.53;;;3.37;100.00
55277;BME280;41136;51.478;-2.610;2024-01-11T09:51:39;102912.75;;;2.92;100.00
55277;BME280;41136;51.478;-2.610;2024-01-11T09:54:03;102919.95;;;2.59;100.00
55277;BME280;41136;51.478;-2.610;2024-01-11T09:56:29;102919.56;;;2.78;100.00
55277;BME280;41136;51.478;-2.610;2024-01-11T09:58:54;102921.64;;;2.61;100.00
55277;BME280;41136;51.478;-2.610;2024-01-11T10:01:20;102915.08;;;2.74;100.00
55277;BME280;41136;51.478;-2.610;2024-01-11T10:03:45;102920.81;;;3.42;100.00
55277;BME280;41136;51.478;-2.610;2024-01-11T10:06:11;102920.04;;;2.32;100.00
55277;BME280;41136;51.478;-2.610;2024-01-11T10:08:36;102927.78;;;1.77;100.00
55277;BME280;41136;51.478;-2.610;2024-01-11T10:11:02;102925.38;;;2.33;100.00
55277;BME280;41136;51.478;-2.610;2024-01-11T10:13:28;102924.11;;;2.96;100.00
55277;BME280;41136;51.478;-2.610;2024-01-11T10:15:52;102931.51;;;3.42;100.00
55277;BME280;41136;51.478;-2.610;2024-01-11T10:18:18;102932.37;;;3.72;100.00
55277;BME280;41136;51.478;-2.610;2024-01-11T10:20:43;102941.35;;;3.55;100.00
55277;BME280;41136;51.478;-2.610;2024-01-11T10:23:09;102942.07;;;3.32;100.00
55277;BME280;41136;51.478;-2.610;2024-01-11T10:25:35;102940.73;;;4.33;100.00
55277;BME280;41136;51.478;-2.610;2024-01-11T10:28:00;102946.39;;;4.21;100.00
55277;BME280;41136;51.478;-2.610;2024-01-11T10:30:25;102943.33;;;3.22;100.00
55277;BME280;41136;51.478;-2.610;2024-01-11T10:32:51;102948.68;;;3.51;100.00
55277;BME280;41136;51.478;-2.610;2024-01-11T10:35:16;102945.57;;;3.82;100.00
55277;BME280;41136;51.478;-2.610;2024-01-11T10:37:43;102954.20;;;3.66;100.00
55277;BME280;41136;51.478;-2.610;2024-01-11T10:40:09;102957.74;;;3.66;100.00
55277;BME280;41136;51.478;-2.610;2024-01-11T10:42:34;102959.76;;;4.43;100.00
55277;BME280;41136;51.478;-2.610;2024-01-11T10:44:59;102955.70;;;4.73;99.81
55277;BME280;41136;51.478;-2.610;2024-01-11T10:47:24;102953.60;;;4.50;98.61
55277;BME280;41136;51.478;-2.610;2024-01-11T10:49:50;102953.88;;;3.92;99.32
55277;BME280;41136;51.478;-2.610;2024-01-11T10:52:15;102953.26;;;4.48;98.83
55277;BME280;41136;51.478;-2.610;2024-01-11T10:54:42;102960.73;;;3.83;100.00
55277;BME280;41136;51.478;-2.610;2024-01-11T10:57:05;102962.60;;;3.82;99.93
55277;BME280;41136;51.478;-2.610;2024-01-11T10:59:32;102961.64;;;4.13;99.23
55277;BME280;41136;51.478;-2.610;2024-01-11T11:01:57;102958.43;;;3.96;99.46
55277;BME280;41136;51.478;-2.610;2024-01-11T11:04:22;102963.12;;;3.77;100.00
55277;BME280;41136;51.478;-2.610;2024-01-11T11:06:49;102958.96;;;3.79;99.24
55277;BME280;41136;51.478;-2.610;2024-01-11T11:09:14;102953.87;;;3.97;99.12
55277;BME280;41136;51.478;-2.610;2024-01-11T11:11:39;102957.60;;;4.54;97.70
55277;BME280;41136;51.478;-2.610;2024-01-11T11:14:05;102959.69;;;3.84;98.24
55277;BME280;41136;51.478;-2.610;2024-01-11T11:16:29;102964.23;;;4.47;98.21
55277;BME280;41136;51.478;-2.610;2024-01-11T11:18:56;102961.48;;;4.50;97.29
55277;BME280;41136;51.478;-2.610;2024-01-11T11:21:20;102966.75;;;4.43;96.51
55277;BME280;41136;51.478;-2.610;2024-01-11T11:23:46;102969.05;;;4.56;95.95
55277;BME280;41136;51.478;-2.610;2024-01-11T11:26:15;102965.04;;;4.26;96.97
55277;BME280;41136;51.478;-2.610;2024-01-11T11:28:37;102968.89;;;4.64;96.33
55277;BME280;41136;51.478;-2.610;2024-01-11T11:31:03;102970.98;;;3.43;98.62
55277;BME280;41136;51.478;-2.610;2024-01-11T11:33:29;102972.30;;;4.42;98.64
55277;BME280;41136;51.478;-2.610;2024-01-11T11:35:54;102976.90;;;3.85;97.25
55277;BME280;41136;51.478;-2.610;2024-01-11T11:38:20;102975.46;;;3.87;98.52
55277;BME280;41136;51.478;-2.610;2024-01-11T11:40:46;102976.76;;;4.27;99.75
55277;BME280;41136;51.478;-2.610;2024-01-11T11:43:09;102974.63;;;3.69;100.00
55277;BME280;41136;51.478;-2.610;2024-01-11T11:45:35;102974.45;;;3.69;100.00
55277;BME280;41136;51.478;-2.610;2024-01-11T11:48:01;102977.53;;;3.92;100.00
55277;BME280;41136;51.478;-2.610;2024-01-11T11:50:26;102975.48;;;3.91;100.00
55277;BME280;41136;51.478;-2.610;2024-01-11T11:52:54;102983.28;;;4.87;99.00
55277;BME280;41136;51.478;-2.610;2024-01-11T11:55:17;102985.19;;;5.01;96.32
55277;BME280;41136;51.478;-2.610;2024-01-11T11:57:43;102983.63;;;4.95;96.50
55277;BME280;41136;51.478;-2.610;2024-01-11T12:00:09;102979.27;;;4.89;96.49
55277;BME280;41136;51.478;-2.610;2024-01-11T12:02:33;102982.40;;;4.71;96.97
55277;BME280;41136;51.478;-2.610;2024-01-11T12:04:58;102985.72;;;4.75;95.80
55277;BME280;41136;51.478;-2.610;2024-01-11T12:07:24;102986.46;;;4.82;96.48
55277;BME280;41136;51.478;-2.610;2024-01-11T12:09:50;102984.24;;;3.65;100.00
55277;BME280;41136;51.478;-2.610;2024-01-11T12:12:15;102975.14;;;3.25;100.00
55277;BME280;41136;51.478;-2.610;2024-01-11T12:14:41;102978.50;;;2.94;100.00
55277;BME280;41136;51.478;-2.610;2024-01-11T12:17:06;102978.38;;;2.83;100.00
55277;BME280;41136;51.478;-2.610;2024-01-11T12:19:31;102972.32;;;3.37;100.00
55277;BME280;41136;51.478;-2.610;2024-01-11T12:21:57;102975.91;;;3.90;100.00
55277;BME280;41136;51.478;-2.610;2024-01-11T12:30:39;102981.87;;;2.07;100.00
55277;BME280;41136;51.478;-2.610;2024-01-11T12:33:05;102985.01;;;2.11;100.00
55277;BME280;41136;51.478;-2.610;2024-01-11T12:35:30;102987.65;;;2.43;100.00
55277;BME280;41136;51.478;-2.610;2024-01-11T12:37:56;102981.77;;;3.11;100.00
55277;BME280;41136;51.478;-2.610;2024-01-11T12:40:20;102985.07;;;3.93;99.79
55277;BME280;41136;51.478;-2.610;2024-01-11T12:42:46;102982.03;;;2.58;100.00
55277;BME280;41136;51.478;-2.610;2024-01-11T12:45:12;102983.15;;;3.12;100.00
55277;BME280;41136;51.478;-2.610;2024-01-11T12:47:37;102986.19;;;2.80;100.00
55277;BME280;41136;51.478;-2.610;2024-01-11T12:50:02;102982.87;;;3.57;100.00
55277;BME280;41136;51.478;-2.610;2024-01-11T12:52:27;102974.17;;;3.28;100.00
55277;BME280;41136;51.478;-2.610;2024-01-11T12:54:53;102975.24;;;3.34;100.00
55277;BME280;41136;51.478;-2.610;2024-01-11T12:57:19;102981.71;;;2.67;100.00
55277;BME280;41136;51.478;-2.610;2024-01-11T12:59:44;102979.28;;;2.58;100.00
55277;BME280;41136;51.478;-2.610;2024-01-11T13:02:09;102976.80;;;2.53;100.00
55277;BME280;41136;51.478;-2.610;2024-01-11T13:04:35;102978.82;;;1.45;100.00
55277;BME280;41136;51.478;-2.610;2024-01-11T13:07:01;102978.68;;;1.76;100.00